sensor_id;sensor_type;location;lat;lon;timestamp;temperature;humidity
16970;DHT22;8601;48.718;8.992;2023-02-01T00:00:31;2.30;99.90
16970;DHT22;8601;48.718;8.992;2023-02-01T00:03:00;2.30;99.90
16970;DHT22;8601;48.718;8.992;2023-02-01T00:05:26;2.30;99.90
16970;DHT22;8601;48.718;8.992;2023-02-01T00:07:53;2.30;99.90
16970;DHT22;8601;48.718;8.992;2023-02-01T00:10:20;2.30;99.90
16970;DHT22;8601;48.718;8.992;2023-02-01T00:12:47;2.30;99.90
16970;DHT22;8601;48.718;8.992;2023-02-01T00:15:15;2.30;99.90
16970;DHT22;8601;48.718;8.992;2023-02-01T00:17:42;2.30;99.90
16970;DHT22;8601;48.718;8.992;2023-02-01T00:20:11;2.30;99.90
16970;DHT22;8601;48.718;8.992;2023-02-01T00:22:37;2.30;99.90
16970;DHT22;8601;48.718;8.992;2023-02-01T00:25:05;2.40;99.90
16970;DHT22;8601;48.718;8.992;2023-02-01T00:27:32;2.30;99.90
16970;DHT22;8601;48.718;8.992;2023-02-01T00:29:59;2.30;99.90
16970;DHT22;8601;48.718;8.992;2023-02-01T00:32:27;2.40;99.90
16970;DHT22;8601;48.718;8.992;2023-02-01T00:34:54;2.40;99.90
16970;DHT22;8601;48.718;8.992;2023-02-01T00:37:21;2.30;99.90
16970;DHT22;8601;48.718;8.992;2023-02-01T00:39:48;2.40;99.90
16970;DHT22;8601;48.718;8.992;2023-02-01T00:42:15;2.40;99.90
16970;DHT22;8601;48.718;8.992;2023-02-01T00:44:42;2.40;99.90
16970;DHT22;8601;48.718;8.992;2023-02-01T00:47:09;2.30;99.90
16970;DHT22;8601;48.718;8.992;2023-02-01T00:49:37;2.40;99.90
16970;DHT22;8601;48.718;8.992;2023-02-01T00:52:04;2.40;99.90
16970;DHT22;8601;48.718;8.992;2023-02-01T00:54:31;2.40;99.90
16970;DHT22;8601;48.718;8.992;2023-02-01T00:56:59;2.40;99.90
16970;DHT22;8601;48.718;8.992;2023-02-01T00:59:26;2.40;99.90
16970;DHT22;8601;48.718;8.992;2023-02-01T01:01:52;2.40;99.90
16970;DHT22;8601;48.718;8.992;2023-02-01T01:04:19;2.40;99.90
16970;DHT22;8601;48.718;8.992;2023-02-01T01:06:48;2.40;99.90
16970;DHT22;8601;48.718;8.992;2023-02-01T01:09:15;2.40;99.90
16970;DHT22;8601;48.718;8.992;2023-02-01T01:11:41;2.40;99.90
16970;DHT22;8601;48.718;8.992;2023-02-01T01:14:09;2.40;99.90
16970;DHT22;8601;48.718;8.992;2023-02-01T01:16:36;2.40;99.90
16970;DHT22;8601;48.718;8.992;2023-02-01T01:19:03;2.50;99.90
16970;DHT22;8601;48.718;8.992;2023-02-01T01:21:31;2.50;99.90
16970;DHT22;8601;48.718;8.992;2023-02-01T01:23:59;2.40;99.90
16970;DHT22;8601;48.718;8.992;2023-02-01T01:26:28;2.40;99.90
16970;DHT22;8601;48.718;8.992;2023-02-01T01:28:55;2.40;99.90
16970;DHT22;8601;48.718;8.992;2023-02-01T01:31:23;2.40;99.90
16970;DHT22;8601;48.718;8.992;2023-02-01T01:33:51;2.40;99.90
16970;DHT22;8601;48.718;8.992;2023-02-01T01:36:18;2.40;99.90
16970;DHT22;8601;48.718;8.992;2023-02-01T01:38:46;2.40;99.90
16970;DHT22;8601;48.718;8.992;2023-02-01T01:41:16;2.40;99.90
16970;DHT22;8601;48.718;8.992;2023-02-01T01:43:50;2.40;99.90
16970;DHT22;8601;48.718;8.992;2023-02-01T01:46:18;2.40;99.90
16970;DHT22;8601;48.718;8.992;2023-02-01T01:48:48;2.40;99.90
16970;DHT22;8601;48.718;8.992;2023-02-01T01:51:19;2.40;99.90
16970;DHT22;8601;48.718;8.992;2023-02-01T01:53:59;2.40;99.90
16970;DHT22;8601;48.718;8.992;2023-02-01T01:56:29;2.40;99.90
16970;DHT22;8601;48.718;8.992;2023-02-01T01:58:58;2.40;99.90
16970;DHT22;8601;48.718;8.992;2023-02-01T02:01:26;2.40;99.90
16970;DHT22;8601;48.718;8.992;2023-02-01T02:03:53;2.40;99.90
16970;DHT22;8601;48.718;8.992;2023-02-01T02:06:30;2.40;99.90
16970;DHT22;8601;48.718;8.992;2023-02-01T02:09:00;2.50;99.90
16970;DHT22;8601;48.718;8.992;2023-02-01T02:11:28;2.50;99.90
16970;DHT22;8601;48.718;8.992;2023-02-01T02:13:57;2.50;99.90
16970;DHT22;8601;48.718;8.992;2023-02-01T02:16:52;2.50;99.90
16970;DHT22;8601;48.718;8.992;2023-02-01T02:22:45;2.50;99.90
16970;DHT22;8601;48.718;8.992;2023-02-01T02:25:43;2.50;99.90
16970;DHT22;8601;48.718;8.992;2023-02-01T02:31:16;2.60;99.90
16970;DHT22;8601;48.718;8.992;2023-02-01T02:33:57;2.60;99.90
16970;DHT22;8601;48.718;8.992;2023-02-01T02:36:31;2.60;99.90
16970;DHT22;8601;48.718;8.992;2023-02-01T02:39:06;2.60;99.90
16970;DHT22;8601;48.718;8.992;2023-02-01T02:41:43;2.60;99.90
16970;DHT22;8601;48.718;8.992;2023-02-01T02:44:34;2.60;99.90
16970;DHT22;8601;48.718;8.992;2023-02-01T02:47:24;2.60;99.90
16970;DHT22;8601;48.718;8.992;2023-02-01T02:50:03;2.60;99.90
16970;DHT22;8601;48.718;8.992;2023-02-01T02:52:53;2.60;99.90
16970;DHT22;8601;48.718;8.992;2023-02-01T02:55:40;2.60;99.90
16970;DHT22;8601;48.718;8.992;2023-02-01T02:58:08;2.60;99.90
16970;DHT22;8601;48.718;8.992;2023-02-01T03:00:55;2.60;99.90
16970;DHT22;8601;48.718;8.992;2023-02-01T03:03:40;2.60;99.90
16970;DHT22;8601;48.718;8.992;2023-02-01T03:06:25;2.60;99.90
16970;DHT22;8601;48.718;8.992;2023-02-01T03:08:55;2.60;99.90
16970;DHT22;8601;48.718;8.992;2023-02-01T03:11:24;2.70;99.90
16970;DHT22;8601;48.718;8.992;2023-02-01T03:14:14;2.70;99.90
16970;DHT22;8601;48.718;8.992;2023-02-01T03:16:44;2.70;99.90
16970;DHT22;8601;48.718;8.992;2023-02-01T03:19:17;2.70;99.90
16970;DHT22;8601;48.718;8.992;2023-02-01T03:21:49;2.70;99.90
16970;DHT22;8601;48.718;8.992;2023-02-01T03:24:20;2.70;99.90
16970;DHT22;8601;48.718;8.992;2023-02-01T03:27:02;2.80;99.90
16970;DHT22;8601;48.718;8.992;2023-02-01T03:29:36;2.70;99.90
16970;DHT22;8601;48.718;8.992;2023-02-01T03:32:05;2.70;99.90
16970;DHT22;8601;48.718;8.992;2023-02-01T03:34:32;2.70;99.90
16970;DHT22;8601;48.718;8.992;2023-02-01T03:37:03;2.70;99.90
16970;DHT22;8601;48.718;8.992;2023-02-01T03:39:34;2.80;99.90
16970;DHT22;8601;48.718;8.992;2023-02-01T03:42:04;2.80;99.90
16970;DHT22;8601;48.718;8.992;2023-02-01T03:44:34;2.80;99.90
16970;DHT22;8601;48.718;8.992;2023-02-01T03:47:04;2.80;99.90
16970;DHT22;8601;48.718;8.992;2023-02-01T03:49:35;2.70;99.90
16970;DHT22;8601;48.718;8.992;2023-02-01T03:52:06;2.80;99.90
16970;DHT22;8601;48.718;8.992;2023-02-01T03:54:35;2.80;99.90
16970;DHT22;8601;48.718;8.992;2023-02-01T03:57:06;2.80;99.90
16970;DHT22;8601;48.718;8.992;2023-02-01T03:59:34;2.80;99.90
16970;DHT22;8601;48.718;8.992;2023-02-01T04:02:04;2.80;99.90
16970;DHT22;8601;48.718;8.992;2023-02-01T04:04:31;2.80;99.90
16970;DHT22;8601;48.718;8.992;2023-02-01T04:06:58;2.80;99.90
16970;DHT22;8601;48.718;8.992;2023-02-01T04:09:26;2.80;99.90
16970;DHT22;8601;48.718;8.992;2023-02-01T04:11:53;2.80;99.90
16970;DHT22;8601;48.718;8.992;2023-02-01T04:14:20;2.80;99.90
16970;DHT22;8601;48.718;8.992;2023-02-01T04:16:46;2.90;99.90
16970;DHT22;8601;48.718;8.992;2023-02-01T04:19:13;2.80;99.90
16970;DHT22;8601;48.718;8.992;2023-02-01T04:21:40;2.90;99.90
16970;DHT22;8601;48.718;8.992;2023-02-01T04:24:07;2.90;99.90
16970;DHT22;8601;48.718;8.992;2023-02-01T04:26:38;2.90;99.90
16970;DHT22;8601;48.718;8.992;2023-02-01T04:29:04;2.90;99.90
16970;DHT22;8601;48.718;8.992;2023-02-01T04:31:31;2.90;99.90
16970;DHT22;8601;48.718;8.992;2023-02-01T04:33:59;2.90;99.90
16970;DHT22;8601;48.718;8.992;2023-02-01T04:36:26;3.00;99.90
16970;DHT22;8601;48.718;8.992;2023-02-01T04:38:52;2.90;99.90
16970;DHT22;8601;48.718;8.992;2023-02-01T04:41:19;3.00;99.90
16970;DHT22;8601;48.718;8.992;2023-02-01T04:43:50;3.00;99.90
16970;DHT22;8601;48.718;8.992;2023-02-01T04:46:18;3.00;99.90
16970;DHT22;8601;48.718;8.992;2023-02-01T04:48:45;3.00;99.90
16970;DHT22;8601;48.718;8.992;2023-02-01T04:51:12;3.00;99.90
16970;DHT22;8601;48.718;8.992;2023-02-01T04:53:40;3.00;99.90
16970;DHT22;8601;48.718;8.992;2023-02-01T04:56:07;3.00;99.90
16970;DHT22;8601;48.718;8.992;2023-02-01T04:58:34;3.00;99.90
16970;DHT22;8601;48.718;8.992;2023-02-01T05:01:04;3.00;99.90
16970;DHT22;8601;48.718;8.992;2023-02-01T05:03:31;3.00;99.90
16970;DHT22;8601;48.718;8.992;2023-02-01T05:05:58;3.00;99.90
16970;DHT22;8601;48.718;8.992;2023-02-01T05:08:26;3.00;99.90
16970;DHT22;8601;48.718;8.992;2023-02-01T05:10:54;3.00;99.90
16970;DHT22;8601;48.718;8.992;2023-02-01T05:13:21;3.00;99.90
16970;DHT22;8601;48.718;8.992;2023-02-01T05:16:06;3.00;99.90
16970;DHT22;8601;48.718;8.992;2023-02-01T05:18:33;3.00;99.90
16970;DHT22;8601;48.718;8.992;2023-02-01T05:21:00;3.00;99.90
16970;DHT22;8601;48.718;8.992;2023-02-01T05:23:27;3.00;99.90
16970;DHT22;8601;48.718;8.992;2023-02-01T05:25:58;3.00;99.90
16970;DHT22;8601;48.718;8.992;2023-02-01T05:28:26;3.10;99.90
16970;DHT22;8601;48.718;8.992;2023-02-01T05:30:53;3.10;99.90
16970;DHT22;8601;48.718;8.992;2023-02-01T05:33:21;3.10;99.90
16970;DHT22;8601;48.718;8.992;2023-02-01T05:35:48;3.10;99.90
16970;DHT22;8601;48.718;8.992;2023-02-01T05:38:15;3.10;99.90
16970;DHT22;8601;48.718;8.992;2023-02-01T05:40:43;3.10;99.90
16970;DHT22;8601;48.718;8.992;2023-02-01T05:43:15;3.10;99.90
16970;DHT22;8601;48.718;8.992;2023-02-01T05:45:42;3.10;99.90
16970;DHT22;8601;48.718;8.992;2023-02-01T05:48:09;3.00;99.90
16970;DHT22;8601;48.718;8.992;2023-02-01T05:50:37;3.00;99.90
16970;DHT22;8601;48.718;8.992;2023-02-01T05:53:04;3.00;99.90
16970;DHT22;8601;48.718;8.992;2023-02-01T05:55:31;3.00;99.90
16970;DHT22;8601;48.718;8.992;2023-02-01T05:57:58;3.00;99.90
16970;DHT22;8601;48.718;8.992;2023-02-01T06:00:25;3.00;99.90
16970;DHT22;8601;48.718;8.992;2023-02-01T06:02:52;3.00;99.90
16970;DHT22;8601;48.718;8.992;2023-02-01T06:05:19;2.90;99.90
16970;DHT22;8601;48.718;8.992;2023-02-01T06:07:48;2.90;99.90
16970;DHT22;8601;48.718;8.992;2023-02-01T06:10:16;3.00;99.90
16970;DHT22;8601;48.718;8.992;2023-02-01T06:12:44;3.00;99.90
16970;DHT22;8601;48.718;8.992;2023-02-01T06:15:11;3.00;99.90
16970;DHT22;8601;48.718;8.992;2023-02-01T06:17:41;3.30;99.90
16970;DHT22;8601;48.718;8.992;2023-02-01T06:20:10;3.20;99.90
16970;DHT22;8601;48.718;8.992;2023-02-01T06:22:37;3.20;99.90
16970;DHT22;8601;48.718;8.992;2023-02-01T06:25:09;3.10;99.90
16970;DHT22;8601;48.718;8.992;2023-02-01T06:27:37;3.20;99.90
16970;DHT22;8601;48.718;8.992;2023-02-01T06:30:05;3.30;99.90
16970;DHT22;8601;48.718;8.992;2023-02-01T06:32:33;3.30;99.90
16970;DHT22;8601;48.718;8.992;2023-02-01T06:34:59;3.40;99.90
16970;DHT22;8601;48.718;8.992;2023-02-01T06:37:26;3.40;99.90
16970;DHT22;8601;48.718;8.992;2023-02-01T06:39:54;3.40;99.90
16970;DHT22;8601;48.718;8.992;2023-02-01T06:42:24;3.40;99.90
16970;DHT22;8601;48.718;8.992;2023-02-01T06:44:51;3.40;99.90
16970;DHT22;8601;48.718;8.992;2023-02-01T06:47:18;4.00;99.90
16970;DHT22;8601;48.718;8.992;2023-02-01T06:49:44;3.80;99.90
16970;DHT22;8601;48.718;8.992;2023-02-01T06:52:11;3.70;99.90
16970;DHT22;8601;48.718;8.992;2023-02-01T06:54:38;3.60;99.90
16970;DHT22;8601;48.718;8.992;2023-02-01T06:57:05;4.10;99.90
16970;DHT22;8601;48.718;8.992;2023-02-01T06:59:34;3.80;99.90
16970;DHT22;8601;48.718;8.992;2023-02-01T07:02:00;3.80;99.90
16970;DHT22;8601;48.718;8.992;2023-02-01T07:04:28;4.70;99.90
16970;DHT22;8601;48.718;8.992;2023-02-01T07:06:55;4.40;99.90
16970;DHT22;8601;48.718;8.992;2023-02-01T07:09:22;4.10;99.90
16970;DHT22;8601;48.718;8.992;2023-02-01T07:11:50;3.90;99.90
16970;DHT22;8601;48.718;8.992;2023-02-01T07:14:17;3.90;99.90
16970;DHT22;8601;48.718;8.992;2023-02-01T07:16:45;3.80;99.90
16970;DHT22;8601;48.718;8.992;2023-02-01T07:19:12;3.70;99.90
16970;DHT22;8601;48.718;8.992;2023-02-01T07:21:39;3.70;99.90
16970;DHT22;8601;48.718;8.992;2023-02-01T07:24:06;3.70;99.90
16970;DHT22;8601;48.718;8.992;2023-02-01T07:26:33;3.70;99.90
16970;DHT22;8601;48.718;8.992;2023-02-01T07:29:00;3.70;99.90
16970;DHT22;8601;48.718;8.992;2023-02-01T07:31:27;3.70;99.90
16970;DHT22;8601;48.718;8.992;2023-02-01T07:33:55;3.70;99.90
16970;DHT22;8601;48.718;8.992;2023-02-01T07:36:23;3.60;99.90
16970;DHT22;8601;48.718;8.992;2023-02-01T07:38:51;3.70;99.90
16970;DHT22;8601;48.718;8.992;2023-02-01T07:41:18;3.70;99.90
16970;DHT22;8601;48.718;8.992;2023-02-01T07:43:45;3.70;99.90
16970;DHT22;8601;48.718;8.992;2023-02-01T07:46:12;3.60;99.90
16970;DHT22;8601;48.718;8.992;2023-02-01T07:48:40;3.70;99.90
16970;DHT22;8601;48.718;8.992;2023-02-01T07:51:11;3.70;99.90
16970;DHT22;8601;48.718;8.992;2023-02-01T07:53:39;3.70;99.90
16970;DHT22;8601;48.718;8.992;2023-02-01T07:56:11;3.80;99.90
16970;DHT22;8601;48.718;8.992;2023-02-01T07:58:38;3.70;99.90
16970;DHT22;8601;48.718;8.992;2023-02-01T08:01:05;3.80;99.90
16970;DHT22;8601;48.718;8.992;2023-02-01T08:03:50;3.80;99.90
16970;DHT22;8601;48.718;8.992;2023-02-01T08:06:20;3.80;99.90
16970;DHT22;8601;48.718;8.992;2023-02-01T08:08:51;3.80;99.90
16970;DHT22;8601;48.718;8.992;2023-02-01T08:11:19;3.90;99.90
16970;DHT22;8601;48.718;8.992;2023-02-01T08:13:46;3.90;99.90
16970;DHT22;8601;48.718;8.992;2023-02-01T08:16:15;4.00;99.90
16970;DHT22;8601;48.718;8.992;2023-02-01T08:18:43;4.00;99.90
16970;DHT22;8601;48.718;8.992;2023-02-01T08:21:12;4.00;99.90
16970;DHT22;8601;48.718;8.992;2023-02-01T08:23:42;4.00;99.90
16970;DHT22;8601;48.718;8.992;2023-02-01T08:26:11;4.00;99.90
16970;DHT22;8601;48.718;8.992;2023-02-01T08:28:41;4.00;99.90
16970;DHT22;8601;48.718;8.992;2023-02-01T08:31:10;4.00;99.90
16970;DHT22;8601;48.718;8.992;2023-02-01T08:33:37;4.10;99.90
16970;DHT22;8601;48.718;8.992;2023-02-01T08:36:06;4.10;99.90
16970;DHT22;8601;48.718;8.992;2023-02-01T08:38:34;4.10;99.90
16970;DHT22;8601;48.718;8.992;2023-02-01T08:41:10;4.10;99.90
16970;DHT22;8601;48.718;8.992;2023-02-01T08:43:37;4.20;99.90
16970;DHT22;8601;48.718;8.992;2023-02-01T08:46:05;4.20;99.90
16970;DHT22;8601;48.718;8.992;2023-02-01T08:48:33;4.30;99.90
16970;DHT22;8601;48.718;8.992;2023-02-01T08:51:01;4.30;99.90
16970;DHT22;8601;48.718;8.992;2023-02-01T08:53:28;4.30;99.90
16970;DHT22;8601;48.718;8.992;2023-02-01T08:55:55;4.30;99.90
16970;DHT22;8601;48.718;8.992;2023-02-01T08:58:23;4.30;99.90
16970;DHT22;8601;48.718;8.992;2023-02-01T09:00:51;4.30;99.90
16970;DHT22;8601;48.718;8.992;2023-02-01T09:03:18;4.30;99.90
16970;DHT22;8601;48.718;8.992;2023-02-01T09:05:44;4.30;99.90
16970;DHT22;8601;48.718;8.992;2023-02-01T09:08:11;4.30;99.90
16970;DHT22;8601;48.718;8.992;2023-02-01T09:10:40;4.30;99.90
16970;DHT22;8601;48.718;8.992;2023-02-01T09:13:07;4.30;99.90
16970;DHT22;8601;48.718;8.992;2023-02-01T09:15:36;4.30;99.90
16970;DHT22;8601;48.718;8.992;2023-02-01T09:18:04;4.30;99.90
16970;DHT22;8601;48.718;8.992;2023-02-01T09:20:31;4.30;99.90
16970;DHT22;8601;48.718;8.992;2023-02-01T09:22:58;4.20;99.90
16970;DHT22;8601;48.718;8.992;2023-02-01T09:25:25;4.20;99.90
16970;DHT22;8601;48.718;8.992;2023-02-01T09:27:53;4.20;99.90
16970;DHT22;8601;48.718;8.992;2023-02-01T09:30:20;4.20;99.90
16970;DHT22;8601;48.718;8.992;2023-02-01T09:32:49;4.20;99.90
16970;DHT22;8601;48.718;8.992;2023-02-01T09:35:15;4.30;99.90
16970;DHT22;8601;48.718;8.992;2023-02-01T09:37:42;4.50;99.90
16970;DHT22;8601;48.718;8.992;2023-02-01T09:40:12;4.40;99.90
16970;DHT22;8601;48.718;8.992;2023-02-01T09:43:07;4.40;99.90
16970;DHT22;8601;48.718;8.992;2023-02-01T09:45:44;4.40;99.90
16970;DHT22;8601;48.718;8.992;2023-02-01T09:48:19;4.50;99.90
16970;DHT22;8601;48.718;8.992;2023-02-01T09:50:49;4.50;99.90
16970;DHT22;8601;48.718;8.992;2023-02-01T09:53:22;4.50;99.90
16970;DHT22;8601;48.718;8.992;2023-02-01T09:55:54;4.60;99.90
16970;DHT22;8601;48.718;8.992;2023-02-01T09:58:25;4.60;99.90
16970;DHT22;8601;48.718;8.992;2023-02-01T10:00:55;4.60;99.90
16970;DHT22;8601;48.718;8.992;2023-02-01T10:03:27;4.60;99.90
16970;DHT22;8601;48.718;8.992;2023-02-01T10:06:14;4.70;99.90
16970;DHT22;8601;48.718;8.992;2023-02-01T10:09:01;4.70;99.90
16970;DHT22;8601;48.718;8.992;2023-02-01T10:11:39;4.70;99.90
16970;DHT22;8601;48.718;8.992;2023-02-01T10:14:25;4.80;99.90
16970;DHT22;8601;48.718;8.992;2023-02-01T10:17:03;4.80;99.90
16970;DHT22;8601;48.718;8.992;2023-02-01T10:19:41;4.70;99.90
16970;DHT22;8601;48.718;8.992;2023-02-01T10:22:13;4.70;99.90
16970;DHT22;8601;48.718;8.992;2023-02-01T10:24:42;4.70;99.90
16970;DHT22;8601;48.718;8.992;2023-02-01T10:27:18;4.70;99.90
16970;DHT22;8601;48.718;8.992;2023-02-01T10:29:51;4.70;99.90
16970;DHT22;8601;48.718;8.992;2023-02-01T10:32:22;4.70;99.90
16970;DHT22;8601;48.718;8.992;2023-02-01T10:34:55;4.80;99.90
16970;DHT22;8601;48.718;8.992;2023-02-01T10:37:27;4.80;99.90
16970;DHT22;8601;48.718;8.992;2023-02-01T10:39:55;4.80;99.90
16970;DHT22;8601;48.718;8.992;2023-02-01T10:42:26;4.80;99.90
16970;DHT22;8601;48.718;8.992;2023-02-01T10:44:55;4.80;99.90
16970;DHT22;8601;48.718;8.992;2023-02-01T10:47:22;4.80;99.90
16970;DHT22;8601;48.718;8.992;2023-02-01T10:49:56;4.80;99.90
16970;DHT22;8601;48.718;8.992;2023-02-01T10:52:34;4.80;99.90
16970;DHT22;8601;48.718;8.992;2023-02-01T10:55:37;4.80;99.90
16970;DHT22;8601;48.718;8.992;2023-02-01T10:58:06;4.80;99.90
16970;DHT22;8601;48.718;8.992;2023-02-01T11:00:43;4.90;99.90
16970;DHT22;8601;48.718;8.992;2023-02-01T11:03:33;4.90;99.90
16970;DHT22;8601;48.718;8.992;2023-02-01T11:06:04;4.80;99.90
16970;DHT22;8601;48.718;8.992;2023-02-01T11:08:42;4.80;99.90
16970;DHT22;8601;48.718;8.992;2023-02-01T11:11:10;4.80;99.90
16970;DHT22;8601;48.718;8.992;2023-02-01T11:13:39;4.80;99.90
16970;DHT22;8601;48.718;8.992;2023-02-01T11:16:12;4.90;99.90
16970;DHT22;8601;48.718;8.992;2023-02-01T11:18:40;4.90;99.90
16970;DHT22;8601;48.718;8.992;2023-02-01T11:21:09;4.90;99.90
16970;DHT22;8601;48.718;8.992;2023-02-01T11:23:41;4.90;99.90
16970;DHT22;8601;48.718;8.992;2023-02-01T11:26:12;4.90;99.90
16970;DHT22;8601;48.718;8.992;2023-02-01T11:28:46;4.90;99.90
16970;DHT22;8601;48.718;8.992;2023-02-01T11:31:15;5.00;99.90
16970;DHT22;8601;48.718;8.992;2023-02-01T11:33:49;5.00;99.90
16970;DHT22;8601;48.718;8.992;2023-02-01T11:36:20;5.00;99.90
16970;DHT22;8601;48.718;8.992;2023-02-01T11:38:52;4.90;99.90
16970;DHT22;8601;48.718;8.992;2023-02-01T11:41:24;4.90;99.90
16970;DHT22;8601;48.718;8.992;2023-02-01T11:43:54;4.90;99.90
16970;DHT22;8601;48.718;8.992;2023-02-01T11:46:24;4.90;99.90
16970;DHT22;8601;48.718;8.992;2023-02-01T11:48:54;4.80;99.90
16970;DHT22;8601;48.718;8.992;2023-02-01T11:51:37;4.80;99.90
16970;DHT22;8601;48.718;8.992;2023-02-01T11:54:27;4.90;99.90
16970;DHT22;8601;48.718;8.992;2023-02-01T11:57:10;4.90;99.90
16970;DHT22;8601;48.718;8.992;2023-02-01T11:59:54;4.90;99.90
16970;DHT22;8601;48.718;8.992;2023-02-01T12:02:51;4.90;99.90
16970;DHT22;8601;48.718;8.992;2023-02-01T12:05:34;4.90;99.90
16970;DHT22;8601;48.718;8.992;2023-02-01T12:08:17;4.90;99.90
16970;DHT22;8601;48.718;8.992;2023-02-01T12:11:01;4.90;99.90
16970;DHT22;8601;48.718;8.992;2023-02-01T12:13:41;4.90;99.90
16970;DHT22;8601;48.718;8.992;2023-02-01T12:16:19;4.90;99.90
16970;DHT22;8601;48.718;8.992;2023-02-01T12:22:05;4.80;99.90
16970;DHT22;8601;48.718;8.992;2023-02-01T12:24:49;4.90;99.90
16970;DHT22;8601;48.718;8.992;2023-02-01T12:30:42;4.80;99.90
16970;DHT22;8601;48.718;8.992;2023-02-01T12:33:20;4.80;99.90
16970;DHT22;8601;48.718;8.992;2023-02-01T12:36:09;4.80;99.90
16970;DHT22;8601;48.718;8.992;2023-02-01T12:38:54;4.80;99.90
16970;DHT22;8601;48.718;8.992;2023-02-01T12:41:44;4.80;99.90
16970;DHT22;8601;48.718;8.992;2023-02-01T12:44:37;4.80;99.90
16970;DHT22;8601;48.718;8.992;2023-02-01T12:47:11;4.80;99.90
16970;DHT22;8601;48.718;8.992;2023-02-01T12:49:46;4.80;99.90
16970;DHT22;8601;48.718;8.992;2023-02-01T12:52:19;4.80;99.90
16970;DHT22;8601;48.718;8.992;2023-02-01T12:54:50;4.80;99.90
16970;DHT22;8601;48.718;8.992;2023-02-01T12:57:23;4.80;99.90
16970;DHT22;8601;48.718;8.992;2023-02-01T12:59:56;4.80;99.90
16970;DHT22;8601;48.718;8.992;2023-02-01T13:02:32;4.80;99.90
16970;DHT22;8601;48.718;8.992;2023-02-01T13:05:12;4.80;99.90
16970;DHT22;8601;48.718;8.992;2023-02-01T13:07:44;4.80;99.90
16970;DHT22;8601;48.718;8.992;2023-02-01T13:10:15;4.80;99.90
16970;DHT22;8601;48.718;8.992;2023-02-01T13:12:50;4.80;99.90
16970;DHT22;8601;48.718;8.992;2023-02-01T13:15:23;4.80;99.90
16970;DHT22;8601;48.718;8.992;2023-02-01T13:17:51;4.70;99.90
16970;DHT22;8601;48.718;8.992;2023-02-01T13:20:23;4.80;99.90
16970;DHT22;8601;48.718;8.992;2023-02-01T13:22:58;4.80;99.90
16970;DHT22;8601;48.718;8.992;2023-02-01T13:25:29;4.80;99.90
16970;DHT22;8601;48.718;8.992;2023-02-01T13:28:03;4.80;99.90
16970;DHT22;8601;48.718;8.992;2023-02-01T13:30:47;4.80;99.90
16970;DHT22;8601;48.718;8.992;2023-02-01T13:33:36;4.80;99.90
16970;DHT22;8601;48.718;8.992;2023-02-01T13:36:20;4.70;99.90
16970;DHT22;8601;48.718;8.992;2023-02-01T13:39:18;4.70;99.90
16970;DHT22;8601;48.718;8.992;2023-02-01T13:41:53;4.70;99.90
16970;DHT22;8601;48.718;8.992;2023-02-01T13:44:26;4.60;99.90
16970;DHT22;8601;48.718;8.992;2023-02-01T13:46:58;4.60;99.90
16970;DHT22;8601;48.718;8.992;2023-02-01T13:49:28;4.60;99.90
16970;DHT22;8601;48.718;8.992;2023-02-01T13:51:57;4.70;99.90
16970;DHT22;8601;48.718;8.992;2023-02-01T13:54:27;4.60;99.90
16970;DHT22;8601;48.718;8.992;2023-02-01T13:56:55;4.70;99.90
16970;DHT22;8601;48.718;8.992;2023-02-01T13:59:49;4.70;99.90
16970;DHT22;8601;48.718;8.992;2023-02-01T14:02:36;4.60;99.90
16970;DHT22;8601;48.718;8.992;2023-02-01T14:05:04;4.70;99.90
16970;DHT22;8601;48.718;8.992;2023-02-01T14:07:31;4.60;99.90
16970;DHT22;8601;48.718;8.992;2023-02-01T14:09:58;4.60;99.90
16970;DHT22;8601;48.718;8.992;2023-02-01T14:12:46;4.60;99.90
16970;DHT22;8601;48.718;8.992;2023-02-01T14:15:26;4.70;99.90
16970;DHT22;8601;48.718;8.992;2023-02-01T14:17:53;5.80;99.90
16970;DHT22;8601;48.718;8.992;2023-02-01T14:20:46;5.30;99.90
16970;DHT22;8601;48.718;8.992;2023-02-01T14:23:23;5.00;99.90
16970;DHT22;8601;48.718;8.992;2023-02-01T14:29:00;4.90;99.90
16970;DHT22;8601;48.718;8.992;2023-02-01T14:31:40;4.90;99.90
16970;DHT22;8601;48.718;8.992;2023-02-01T14:34:19;4.80;99.90
16970;DHT22;8601;48.718;8.992;2023-02-01T14:36:50;4.80;99.90
16970;DHT22;8601;48.718;8.992;2023-02-01T14:39:32;4.80;99.90
16970;DHT22;8601;48.718;8.992;2023-02-01T14:42:05;4.70;99.90
16970;DHT22;8601;48.718;8.992;2023-02-01T14:44:35;4.80;99.90
16970;DHT22;8601;48.718;8.992;2023-02-01T14:47:34;4.80;99.90
16970;DHT22;8601;48.718;8.992;2023-02-01T14:53:20;4.70;99.90
16970;DHT22;8601;48.718;8.992;2023-02-01T14:55:51;4.70;99.90
16970;DHT22;8601;48.718;8.992;2023-02-01T14:58:29;4.70;99.90
16970;DHT22;8601;48.718;8.992;2023-02-01T15:01:00;4.70;99.90
16970;DHT22;8601;48.718;8.992;2023-02-01T15:03:43;4.70;99.90
16970;DHT22;8601;48.718;8.992;2023-02-01T15:06:29;4.70;99.90
16970;DHT22;8601;48.718;8.992;2023-02-01T15:08:59;4.70;99.90
16970;DHT22;8601;48.718;8.992;2023-02-01T15:11:27;4.80;99.90
16970;DHT22;8601;48.718;8.992;2023-02-01T15:13:54;4.80;99.90
16970;DHT22;8601;48.718;8.992;2023-02-01T15:16:23;4.70;99.90
16970;DHT22;8601;48.718;8.992;2023-02-01T15:19:06;4.70;99.90
16970;DHT22;8601;48.718;8.992;2023-02-01T15:21:43;4.70;99.90
16970;DHT22;8601;48.718;8.992;2023-02-01T15:24:12;4.70;99.90
16970;DHT22;8601;48.718;8.992;2023-02-01T15:26:40;4.70;99.90
16970;DHT22;8601;48.718;8.992;2023-02-01T15:29:11;4.80;99.90
16970;DHT22;8601;48.718;8.992;2023-02-01T15:31:40;4.80;99.90
16970;DHT22;8601;48.718;8.992;2023-02-01T15:34:09;4.80;99.90
16970;DHT22;8601;48.718;8.992;2023-02-01T15:36:36;4.80;99.90
16970;DHT22;8601;48.718;8.992;2023-02-01T15:39:30;4.80;99.90
16970;DHT22;8601;48.718;8.992;2023-02-01T15:41:59;4.70;99.90
16970;DHT22;8601;48.718;8.992;2023-02-01T15:44:33;4.70;99.90
16970;DHT22;8601;48.718;8.992;2023-02-01T15:47:07;4.70;99.90
16970;DHT22;8601;48.718;8.992;2023-02-01T15:49:40;5.10;99.90
16970;DHT22;8601;48.718;8.992;2023-02-01T15:52:20;4.90;99.90
16970;DHT22;8601;48.718;8.992;2023-02-01T15:54:49;4.80;99.90
16970;DHT22;8601;48.718;8.992;2023-02-01T15:57:23;4.70;99.90
16970;DHT22;8601;48.718;8.992;2023-02-01T15:59:57;4.70;99.90
16970;DHT22;8601;48.718;8.992;2023-02-01T16:02:27;4.70;99.90
16970;DHT22;8601;48.718;8.992;2023-02-01T16:04:56;4.70;99.90
16970;DHT22;8601;48.718;8.992;2023-02-01T16:07:27;4.60;99.90
16970;DHT22;8601;48.718;8.992;2023-02-01T16:09:56;4.60;99.90
16970;DHT22;8601;48.718;8.992;2023-02-01T16:12:29;4.60;99.90
16970;DHT22;8601;48.718;8.992;2023-02-01T16:14:56;4.50;99.90
16970;DHT22;8601;48.718;8.992;2023-02-01T16:17:23;4.60;99.90
16970;DHT22;8601;48.718;8.992;2023-02-01T16:19:50;4.50;99.90
16970;DHT22;8601;48.718;8.992;2023-02-01T16:22:18;4.60;99.90
16970;DHT22;8601;48.718;8.992;2023-02-01T16:24:49;4.50;99.90
16970;DHT22;8601;48.718;8.992;2023-02-01T16:27:17;4.60;99.90
16970;DHT22;8601;48.718;8.992;2023-02-01T16:29:43;4.50;99.90
16970;DHT22;8601;48.718;8.992;2023-02-01T16:32:15;4.50;99.90
16970;DHT22;8601;48.718;8.992;2023-02-01T16:34:42;4.50;99.90
16970;DHT22;8601;48.718;8.992;2023-02-01T16:37:12;4.50;99.90
16970;DHT22;8601;48.718;8.992;2023-02-01T16:39:41;4.50;99.90
16970;DHT22;8601;48.718;8.992;2023-02-01T16:42:10;4.50;99.90
16970;DHT22;8601;48.718;8.992;2023-02-01T16:44:37;5.10;99.90
16970;DHT22;8601;48.718;8.992;2023-02-01T16:47:11;5.90;99.90
16970;DHT22;8601;48.718;8.992;2023-02-01T16:49:41;5.20;99.90